Time;durP1;ratioP1;P1;durP2;ratioP2;P2;SDS_P1;SDS_P2;PMS_P1;PMS_P2;Temp;Humidity;BMP_temperature;BMP_pressure;BME280_temperature;BME280_humidity;BME280_pressure;Samples;Min_cycle;Max_cycle;Signal;HPM_P1;HPM_P2
2021/12/13 00:01:39;;;;;;;3.57;3.33;;;8.00;52.60;;;;;;20508;6848;311065;-84
2021/12/13 00:04:05;;;;;;;3.57;3.27;;;8.20;52.60;;;;;;20712;6863;124049;-89
2021/12/13 00:06:31;;;;;;;3.40;3.20;;;8.20;52.50;;;;;;20568;6848;119155;-87
2021/12/13 00:08:57;;;;;;;3.40;3.20;;;8.10;52.70;;;;;;20724;6848;117705;-87
2021/12/13 00:11:22;;;;;;;3.70;3.50;;;8.00;53.00;;;;;;20709;6861;118114;-85
2021/12/13 00:13:50;;;;;;;4.37;4.05;;;7.90;53.40;;;;;;20497;6847;307483;-85
2021/12/13 00:16:16;;;;;;;3.97;3.67;;;8.00;53.20;;;;;;20705;6862;118070;-86
2021/12/13 00:18:41;;;;;;;3.60;3.30;;;8.10;53.00;;;;;;20731;6847;146703;-85
2021/12/13 00:21:12;;;;;;;3.33;3.03;;;8.00;53.40;;;;;;20737;6848;117488;-88
2021/12/13 00:23:37;;;;;;;3.95;3.75;;;8.10;53.30;;;;;;20340;6862;311286;-86
2021/12/13 00:26:02;;;;;;;3.80;3.50;;;8.10;53.30;;;;;;20449;6862;311393;-87
2021/12/13 00:28:28;;;;;;;3.60;3.40;;;8.50;52.60;;;;;;20711;6848;123461;-88
2021/12/13 00:31:09;;;;;;;3.83;3.63;;;8.30;52.70;;;;;;20717;6848;117696;-85
2021/12/13 00:34:15;;;;;;;3.60;3.40;;;8.10;53.00;;;;;;20728;6848;117539;-84
2021/12/13 00:36:40;;;;;;;3.30;3.10;;;8.10;53.00;;;;;;20758;6848;120065;-88
2021/12/13 00:39:19;;;;;;;3.50;3.30;;;7.90;53.40;;;;;;20767;6848;117623;-83
2021/12/13 00:41:44;;;;;;;4.13;3.83;;;7.80;53.60;;;;;;20436;6863;308233;-82
2021/12/13 00:44:11;;;;;;;4.00;3.67;;;8.10;53.30;;;;;;20674;6863;117637;-82
2021/12/13 00:46:36;;;;;;;4.30;3.90;;;8.10;53.20;;;;;;20404;6848;311681;-82
2021/12/13 00:49:02;;;;;;;4.70;4.30;;;8.30;53.00;;;;;;20494;6848;312405;-83
2021/12/13 00:51:27;;;;;;;4.10;3.70;;;8.60;52.60;;;;;;20703;6848;117741;-83
2021/12/13 00:53:53;;;;;;;4.00;3.70;;;8.60;52.50;;;;;;20732;6848;117098;-83
2021/12/13 00:56:48;;;;;;;4.40;4.10;;;8.40;52.80;;;;;;20477;6863;303182;-83
2021/12/13 00:59:36;;;;;;;4.13;3.80;;;8.50;52.60;;;;;;20743;6848;120040;-83
2021/12/13 01:02:11;;;;;;;4.00;3.70;;;8.50;52.70;;;;;;20765;6848;117181;-83
2021/12/13 01:05:06;;;;;;;4.47;4.17;;;8.20;53.00;;;;;;20522;6848;310468;-83
2021/12/13 01:08:09;;;;;;;3.77;3.53;;;8.40;53.00;;;;;;20770;6848;117088;-83
2021/12/13 01:10:55;;;;;;;3.67;3.47;;;8.30;52.90;;;;;;20801;6808;118977;-84
2021/12/13 01:13:43;;;;;;;3.97;3.67;;;8.10;53.40;;;;;;20703;6781;116268;-83
2021/12/13 01:23:07;;;;;;;4.40;4.10;;;8.60;52.90;;;;;;20367;6843;117123;-83
2021/12/13 01:25:16;;;;;;;4.10;3.90;;;8.60;52.40;;;;;;20310;6880;123615;-83
2021/12/13 01:27:32;;;;;;;4.37;3.97;;;8.30;52.80;;;;;;20730;6838;117117;-83
2021/12/13 01:30:11;;;;;;;5.00;4.60;;;8.30;53.30;;;;;;20619;6759;276713;-83
2021/12/13 01:32:46;;;;;;;4.30;4.00;;;8.30;53.30;;;;;;20812;6756;121710;-83
2021/12/13 01:35:22;;;;;;;4.00;3.80;;;8.30;53.10;;;;;;20840;6756;117369;-83
2021/12/13 01:38:03;;;;;;;4.43;4.13;;;8.20;53.50;;;;;;20837;6756;117400;-83
2021/12/13 01:40:33;;;;;;;4.63;4.23;;;8.00;53.80;;;;;;20749;6773;117121;-83
2021/12/13 01:43:18;;;;;;;4.17;3.87;;;7.90;54.10;;;;;;20722;6773;117970;-83
2021/12/13 01:45:54;;;;;;;5.23;4.83;;;7.80;54.30;;;;;;20725;6792;120186;-84
2021/12/13 01:48:29;;;;;;;4.63;4.30;;;7.70;54.60;;;;;;20776;6769;127168;-83
2021/12/13 01:51:06;;;;;;;5.50;5.10;;;7.60;54.80;;;;;;20624;6754;336208;-84
2021/12/13 01:53:41;;;;;;;5.57;5.18;;;8.30;54.30;;;;;;20533;6764;279984;-84
2021/12/13 01:59:04;;;;;;;5.00;4.60;;;8.40;54.10;;;;;;20264;6828;119165;-83
2021/12/13 02:01:35;;;;;;;5.40;4.90;;;8.20;54.30;;;;;;20788;6772;116950;-83
2021/12/13 02:04:13;;;;;;;3.90;3.60;;;8.00;54.60;;;;;;20634;6797;117141;-83
2021/12/13 02:06:46;;;;;;;4.90;4.60;;;7.90;55.00;;;;;;20732;6782;117244;-83
2021/12/13 02:09:21;;;;;;;6.00;5.60;;;7.80;55.90;;;;;;20541;6784;310975;-84
2021/12/13 02:11:57;;;;;;;5.07;4.78;;;8.00;55.10;;;;;;20640;6764;306576;-83
2021/12/13 02:14:34;;;;;;;5.20;4.90;;;8.40;54.30;;;;;;20471;6764;284277;-84
2021/12/13 02:17:10;;;;;;;6.13;5.73;;;8.70;53.40;;;;;;20582;6769;278481;-84
2021/12/13 02:19:44;;;;;;;5.87;5.47;;;9.00;53.20;;;;;;20641;6752;309673;-83
2021/12/13 02:22:26;;;;;;;6.27;5.77;;;9.10;52.90;;;;;;20868;6754;116048;-83
2021/12/13 02:25:08;;;;;;;5.67;5.17;;;9.00;53.10;;;;;;20608;6775;117605;-84
2021/12/13 02:27:44;;;;;;;5.60;5.20;;;8.60;53.80;;;;;;20824;6771;117352;-83
2021/12/13 02:30:23;;;;;;;6.60;5.40;;;8.30;54.40;;;;;;20785;6773;117593;-83
2021/12/13 02:32:58;;;;;;;5.90;5.40;;;8.00;54.90;;;;;;20742;6772;117044;-83
2021/12/13 02:35:34;;;;;;;6.80;6.15;;;7.90;55.40;;;;;;20600;6757;334975;-83
2021/12/13 02:38:09;;;;;;;6.20;5.80;;;8.00;56.00;;;;;;20791;6770;117260;-83
2021/12/13 02:40:45;;;;;;;7.00;6.20;;;8.10;55.80;;;;;;20466;6796;283309;-83
2021/12/13 02:43:20;;;;;;;7.07;6.53;;;8.30;55.90;;;;;;20504;6780;308854;-83
2021/12/13 02:45:56;;;;;;;7.28;6.65;;;8.60;55.30;;;;;;20678;6742;277115;-83
2021/12/13 02:48:32;;;;;;;6.80;6.30;;;8.80;54.60;;;;;;20605;6760;307038;-83
2021/12/13 02:51:34;;;;;;;7.53;6.73;;;9.20;53.90;;;;;;20693;6747;282240;-88
2021/12/13 02:54:14;;;;;;;6.57;6.07;;;9.20;53.90;;;;;;20677;6762;120214;-89
2021/12/13 02:56:49;;;;;;;7.70;7.00;;;8.90;54.10;;;;;;20589;6762;326682;-89
2021/12/13 02:59:24;;;;;;;7.47;6.93;;;8.90;54.50;;;;;;20611;6762;334829;-88
2021/12/13 03:02:11;;;;;;;6.47;5.93;;;8.90;54.40;;;;;;20819;6762;120473;-86
2021/12/13 03:04:46;;;;;;;7.27;6.67;;;8.80;54.30;;;;;;20693;6747;117748;-86
2021/12/13 03:07:22;;;;;;;7.40;6.70;;;8.50;54.90;;;;;;20880;6748;117830;-87
2021/12/13 03:13:32;;;;;;;9.40;8.35;;;8.40;55.80;;;;;;20562;6763;280436;-88
2021/12/13 03:16:11;;;;;;;7.00;6.40;;;8.80;55.00;;;;;;20854;6778;68524;-88
2021/12/13 03:18:57;;;;;;;6.20;5.70;;;8.70;55.00;;;;;;20788;6770;119585;-88
2021/12/13 03:21:45;;;;;;;7.62;7.00;;;8.40;55.50;;;;;;20519;6785;341723;-86
2021/12/13 03:24:34;;;;;;;9.13;8.27;;;8.50;55.90;;;;;;20419;6778;312298;-87
2021/12/13 03:27:23;;;;;;;10.00;9.10;;;8.70;55.30;;;;;;20611;6765;307316;-87
2021/12/13 03:30:05;;;;;;;7.53;6.90;;;9.00;54.80;;;;;;20892;6745;117210;-84
2021/12/13 03:33:07;;;;;;;6.50;6.03;;;8.80;54.80;;;;;;20880;6745;119151;-86
2021/12/13 03:35:46;;;;;;;8.17;7.20;;;8.40;55.40;;;;;;20903;6751;116939;-88
2021/12/13 03:38:26;;;;;;;7.77;6.43;;;8.10;56.20;;;;;;20794;6781;116267;-88
2021/12/13 03:41:00;;;;;;;8.40;7.63;;;7.90;56.60;;;;;;20654;6766;307232;-87
2021/12/13 03:43:36;;;;;;;8.20;7.50;;;8.00;57.00;;;;;;20514;6776;313515;-84
2021/12/13 03:46:11;;;;;;;7.37;6.67;;;8.40;56.60;;;;;;20752;6782;116717;-85
2021/12/13 03:48:47;;;;;;;8.38;7.70;;;8.40;56.40;;;;;;20535;6793;335501;-89
2021/12/13 03:51:26;;;;;;;7.57;6.87;;;8.50;56.60;;;;;;20764;6789;117094;-88
2021/12/13 03:54:01;;;;;;;8.68;7.87;;;8.40;56.50;;;;;;20458;6786;311127;-86
2021/12/13 03:56:43;;;;;;;9.18;8.32;;;8.50;56.60;;;;;;20588;6771;302615;-89
2021/12/13 03:59:19;;;;;;;8.98;8.13;;;9.00;55.70;;;;;;20579;6771;282858;-86
2021/12/13 04:01:58;;;;;;;8.97;8.27;;;8.90;55.60;;;;;;20573;6752;277619;-86
2021/12/13 04:04:34;;;;;;;8.90;8.20;;;9.10;55.20;;;;;;20432;6770;309501;-85
2021/12/13 04:07:12;;;;;;;8.93;8.10;;;9.20;54.80;;;;;;20627;6809;277806;-86
2021/12/13 04:09:48;;;;;;;9.27;8.47;;;9.30;54.70;;;;;;20649;6755;306016;-86
2021/12/13 04:12:27;;;;;;;10.10;9.20;;;9.40;54.60;;;;;;20644;6755;335318;-87
2021/12/13 04:15:03;;;;;;;10.07;9.18;;;9.40;54.40;;;;;;20465;6755;309612;-86
2021/12/13 04:17:58;;;;;;;11.15;10.15;;;9.50;54.40;;;;;;20600;6755;278622;-85
2021/12/13 04:20:20;;;;;;;10.10;8.40;;;9.50;54.30;;;;;;20863;6813;121182;-88
2021/12/13 04:22:56;;;;;;;11.10;8.57;;;9.20;54.70;;;;;;20817;6755;116411;-88
2021/12/13 04:25:31;;;;;;;13.23;11.80;;;8.70;55.50;;;;;;20636;6764;306793;-85
2021/12/13 04:28:08;;;;;;;12.55;11.25;;;8.90;56.40;;;;;;20642;6755;306186;-86
2021/12/13 04:30:46;;;;;;;10.33;9.17;;;8.90;56.30;;;;;;20815;6755;119401;-86
2021/12/13 04:36:11;;;;;;;15.70;14.07;;;8.70;56.80;;;;;;20464;6766;67728;-89
2021/12/13 04:39:27;;;;;;;12.50;11.50;;;8.60;56.90;;;;;;20600;6769;310414;-89
2021/12/13 04:42:09;;;;;;;12.40;11.17;;;8.60;57.20;;;;;;20618;6777;277466;-87
2021/12/13 04:44:57;;;;;;;11.20;10.20;;;8.90;56.60;;;;;;20462;6767;308597;-91
2021/12/13 04:47:57;;;;;;;9.93;8.87;;;9.00;56.30;;;;;;20863;6756;118135;-86
2021/12/13 04:50:32;;;;;;;10.73;9.67;;;8.80;56.50;;;;;;20648;6808;307944;-86
2021/12/13 04:53:11;;;;;;;10.50;9.50;;;8.90;56.60;;;;;;20618;6822;309231;-89
2021/12/13 04:55:48;;;;;;;10.27;9.47;;;8.90;56.50;;;;;;20699;6805;305748;-93
2021/12/13 04:58:18;;;;;;;10.00;9.20;;;9.20;55.70;;;;;;20709;6751;276950;-88
2021/12/13 05:00:53;;;;;;;9.80;8.77;;;9.20;55.60;;;;;;20644;6751;343363;-86
2021/12/13 05:03:48;;;;;;;;;;;;;;;;;;;;;
2021/12/13 05:06:19;;;;;;;;;;;;;;;;;;;;;
2021/12/13 05:08:53;;;;;;;9.90;9.00;;;8.70;56.20;;;;;;20549;6763;277476;-87
2021/12/13 05:11:37;;;;;;;9.70;8.80;;;9.00;56.40;;;;;;20633;6766;310459;-86
2021/12/13 05:14:08;;;;;;;9.90;8.90;;;8.80;56.30;;;;;;20728;6762;116914;-87
2021/12/13 05:16:57;;;;;;;10.67;9.00;;;8.80;57.20;;;;;;20597;6757;289553;-87
2021/12/13 05:19:31;;;;;;;11.37;9.83;;;8.80;56.50;;;;;;20660;6757;277654;-87
2021/12/13 05:22:07;;;;;;;10.70;9.70;;;9.00;56.10;;;;;;20672;6757;276131;-89
2021/12/13 05:24:59;;;;;;;;;;;;;;;;;;;;;
2021/12/13 05:27:38;;;;;;;9.93;9.02;;;9.00;55.80;;;;;;20668;6748;335886;-88
2021/12/13 05:30:13;;;;;;;17.93;14.77;;;9.00;56.10;;;;;;20870;6748;117315;-89
2021/12/13 05:32:49;;;;;;;14.00;11.87;;;8.80;56.30;;;;;;20620;6748;315888;-88
2021/12/13 05:35:29;;;;;;;14.20;12.80;;;9.00;56.30;;;;;;20609;6763;310570;-86
2021/12/13 05:38:04;;;;;;;14.45;12.93;;;9.00;56.30;;;;;;20674;6748;306632;-87
2021/12/13 05:40:40;;;;;;;20.10;18.10;;;9.10;55.80;;;;;;20600;6763;307058;-87
2021/12/13 05:43:22;;;;;;;12.75;11.30;;;9.30;55.50;;;;;;20578;6763;279729;-89
2021/12/13 05:49:33;;;;;;;;;;;;;;;;;;;;;
2021/12/13 05:55:01;;;;;;;12.63;9.23;;;9.20;55.60;;;;;;20615;6757;117531;-87
2021/12/13 05:57:34;;;;;;;11.15;10.05;;;8.90;55.70;;;;;;20628;6757;338813;-89
2021/12/13 06:00:25;;;;;;;10.07;9.00;;;8.90;56.10;;;;;;20767;6757;117799;-89
2021/12/13 06:03:15;;;;;;;12.50;9.10;;;8.70;56.30;;;;;;20840;6757;117408;-88
2021/12/13 06:05:48;;;;;;;8.60;7.90;;;8.40;57.00;;;;;;20860;6757;121073;-91
2021/12/13 06:08:21;;;;;;;10.67;9.73;;;8.20;57.70;;;;;;20640;6757;309702;-87
2021/12/13 06:11:00;;;;;;;10.13;9.30;;;8.30;57.70;;;;;;20645;6756;306554;-87
2021/12/13 06:13:39;;;;;;;11.32;10.23;;;8.60;57.10;;;;;;20618;6756;339273;-88
2021/12/13 06:16:18;;;;;;;13.80;11.43;;;8.70;56.90;;;;;;20842;6757;117320;-92
2021/12/13 06:18:59;;;;;;;14.67;13.27;;;8.70;56.30;;;;;;20605;6813;307185;-90
2021/12/13 06:21:58;;;;;;;12.87;11.67;;;8.70;56.80;;;;;;20634;6757;278998;-91
2021/12/13 06:24:34;;;;;;;14.80;13.33;;;8.90;56.70;;;;;;20435;6813;309254;-87
2021/12/13 06:27:12;;;;;;;28.17;20.77;;;9.10;56.50;;;;;;20927;6757;67944;-92
2021/12/13 06:29:54;;;;;;;154.50;98.20;;;8.90;56.50;;;;;;20840;6757;117247;-88
2021/12/13 06:32:33;;;;;;;23.67;21.15;;;8.60;57.30;;;;;;20603;6757;337379;-90
2021/12/13 06:35:29;;;;;;;18.57;14.83;;;8.60;58.00;;;;;;20616;6828;118005;-86
2021/12/13 06:38:24;;;;;;;18.23;16.23;;;8.50;58.00;;;;;;20644;6757;278427;-91
2021/12/13 06:41:13;;;;;;;16.73;14.98;;;8.50;58.30;;;;;;20633;6757;281103;-86
2021/12/13 06:43:55;;;;;;;18.52;15.80;;;8.80;57.90;;;;;;20460;6830;313492;-92
2021/12/13 06:46:31;;;;;;;16.67;13.93;;;8.80;57.60;;;;;;20758;6772;118057;-91
2021/12/13 06:49:10;;;;;;;13.40;11.67;;;8.80;57.50;;;;;;20766;6831;123986;-92
2021/12/13 06:51:55;;;;;;;17.63;12.00;;;8.40;58.20;;;;;;20770;6774;117824;-87
2021/12/13 06:54:37;;;;;;;17.77;11.53;;;8.20;59.00;;;;;;20628;6767;117970;-85
2021/12/13 06:57:32;;;;;;;16.20;12.10;;;7.90;59.50;;;;;;20833;6757;117693;-87
2021/12/13 07:00:15;;;;;;;19.03;12.20;;;7.70;60.00;;;;;;20779;6774;117486;-86
2021/12/13 07:03:07;;;;;;;16.58;14.87;;;7.60;60.40;;;;;;20568;6767;281579;-86
2021/12/13 07:05:48;;;;;;;16.47;12.57;;;7.80;61.20;;;;;;20817;6767;117670;-86
2021/12/13 07:08:24;;;;;;;17.40;14.33;;;7.80;60.70;;;;;;20618;6757;306370;-85
2021/12/13 07:10:59;;;;;;;21.13;13.00;;;8.10;61.10;;;;;;20821;6757;116750;-86
2021/12/13 07:13:35;;;;;;;13.17;11.70;;;8.10;60.60;;;;;;20718;6772;117439;-84
2021/12/13 07:16:15;;;;;;;15.03;11.63;;;7.90;60.80;;;;;;20830;6757;117266;-83
2021/12/13 07:18:50;;;;;;;22.00;15.52;;;7.70;61.10;;;;;;20611;6757;275838;-82
2021/12/13 07:21:25;;;;;;;18.70;11.57;;;7.90;61.50;;;;;;20813;6771;117447;-82
2021/12/13 07:24:05;;;;;;;23.67;11.53;;;7.90;61.00;;;;;;20760;6756;117858;-82
2021/12/13 07:27:05;;;;;;;17.07;14.50;;;7.80;61.30;;;;;;20625;6757;275986;-84
2021/12/13 07:29:41;;;;;;;23.00;15.82;;;8.00;61.80;;;;;;20529;6774;309691;-83
2021/12/13 07:32:20;;;;;;;19.07;12.17;;;8.40;61.10;;;;;;20862;6767;116370;-85
2021/12/13 07:34:58;;;;;;;14.13;11.57;;;8.30;60.60;;;;;;20351;6874;117743;-82
2021/12/13 07:37:54;;;;;;;16.08;13.85;;;8.10;61.00;;;;;;20613;6767;307544;-84
2021/12/13 07:40:31;;;;;;;17.57;14.30;;;8.60;61.10;;;;;;20592;6767;307573;-84
2021/12/13 07:43:13;;;;;;;20.30;14.90;;;8.60;60.50;;;;;;20582;6757;309363;-84
2021/12/13 07:45:54;;;;;;;19.77;15.20;;;9.00;59.10;;;;;;20618;6757;307465;-83
2021/12/13 07:48:39;;;;;;;18.23;11.93;;;8.80;59.10;;;;;;20767;6772;151352;-84
2021/12/13 07:51:27;;;;;;;22.17;13.27;;;8.80;59.10;;;;;;20829;6813;117701;-84
2021/12/13 07:54:03;;;;;;;18.42;15.52;;;8.50;59.90;;;;;;20474;6772;310731;-84
2021/12/13 07:56:39;;;;;;;17.93;13.87;;;8.50;60.30;;;;;;20766;6772;117478;-83
2021/12/13 07:59:27;;;;;;;14.63;11.70;;;8.40;60.30;;;;;;20854;6757;117367;-84
2021/12/13 08:02:08;;;;;;;12.37;10.80;;;8.30;60.90;;;;;;20840;6757;121407;-83
2021/12/13 08:04:58;;;;;;;16.23;11.83;;;8.10;61.50;;;;;;20640;6772;117732;-84
2021/12/13 08:07:47;;;;;;;24.17;13.27;;;7.90;62.00;;;;;;20781;6773;118637;-84
2021/12/13 08:10:29;;;;;;;20.37;17.27;;;7.80;62.40;;;;;;20632;6757;285014;-83
2021/12/13 08:13:05;;;;;;;23.33;16.65;;;8.10;62.60;;;;;;20596;6757;310109;-86
2021/12/13 08:15:40;;;;;;;20.63;13.73;;;8.50;61.80;;;;;;20843;6757;117347;-83
2021/12/13 08:18:22;;;;;;;18.40;12.83;;;8.50;61.30;;;;;;20783;6772;119671;-83
2021/12/13 08:21:01;;;;;;;23.40;16.80;;;8.30;61.70;;;;;;20611;6757;290151;-82
2021/12/13 08:23:39;;;;;;;26.83;17.43;;;8.50;62.00;;;;;;20499;6772;310330;-84
2021/12/13 08:26:18;;;;;;;24.07;17.13;;;8.80;61.40;;;;;;20623;6757;294291;-84
2021/12/13 08:28:54;;;;;;;30.87;14.23;;;9.10;60.70;;;;;;20814;6757;119512;-84
2021/12/13 08:31:30;;;;;;;23.67;13.43;;;8.70;61.10;;;;;;20774;6772;123076;-84
2021/12/13 08:34:08;;;;;;;23.10;17.08;;;8.70;61.10;;;;;;20525;6774;309998;-84
2021/12/13 08:36:44;;;;;;;16.17;13.10;;;8.80;61.60;;;;;;20758;6771;117796;-86
2021/12/13 08:39:23;;;;;;;18.80;12.60;;;8.80;61.50;;;;;;20600;6781;70375;-86
2021/12/13 08:41:58;;;;;;;15.07;10.70;;;8.60;61.90;;;;;;20833;6762;116538;-85
2021/12/13 08:44:34;;;;;;;18.30;11.40;;;8.50;62.60;;;;;;20658;6758;122589;-86
2021/12/13 08:47:15;;;;;;;20.10;11.13;;;8.40;63.00;;;;;;20804;6751;117561;-87
2021/12/13 08:49:54;;;;;;;18.85;14.40;;;8.30;63.40;;;;;;20617;6763;306882;-89
2021/12/13 08:52:27;;;;;;;20.12;15.25;;;8.50;63.60;;;;;;20634;6764;276926;-86
2021/12/13 08:55:12;;;;;;;21.53;12.70;;;8.90;62.70;;;;;;20626;6763;117883;-86
2021/12/13 08:58:12;;;;;;;17.97;14.20;;;9.20;61.90;;;;;;20427;6813;305427;-87
2021/12/13 09:00:59;;;;;;;15.80;12.00;;;9.10;61.80;;;;;;20816;6763;117630;-85
2021/12/13 09:03:42;;;;;;;12.57;10.10;;;9.10;61.80;;;;;;20751;6764;121371;-87
2021/12/13 09:06:18;;;;;;;12.87;10.17;;;8.90;62.30;;;;;;20832;6764;117833;-86
2021/12/13 09:09:00;;;;;;;12.60;10.20;;;8.70;62.80;;;;;;20784;6766;120455;-87
2021/12/13 09:11:56;;;;;;;14.23;10.63;;;8.60;63.20;;;;;;20829;6764;116778;-86
2021/12/13 09:14:34;;;;;;;16.40;12.60;;;8.50;63.60;;;;;;20503;6764;279605;-86
2021/12/13 09:17:21;;;;;;;19.02;14.35;;;8.80;63.90;;;;;;20569;6772;301146;-86
2021/12/13 09:19:59;;;;;;;17.90;14.10;;;9.20;62.70;;;;;;20566;6757;279916;-86
2021/12/13 09:22:34;;;;;;;27.40;15.60;;;9.50;61.60;;;;;;20022;6831;308422;-86
2021/12/13 09:25:27;;;;;;;18.93;14.80;;;9.80;60.90;;;;;;20357;6843;281119;-90
2021/12/13 09:28:16;;;;;;;16.35;13.88;;;10.20;58.90;;;;;;20572;6772;307516;-88
2021/12/13 09:31:08;;;;;;;18.02;14.27;;;10.20;58.90;;;;;;20599;6757;280762;-87
2021/12/13 09:33:44;;;;;;;18.27;14.53;;;10.40;58.40;;;;;;20501;6772;312981;-86
2021/12/13 09:36:23;;;;;;;18.23;11.97;;;10.50;58.10;;;;;;20847;6764;118095;-89
2021/12/13 09:39:12;;;;;;;13.43;11.03;;;9.90;60.30;;;;;;20858;6764;117586;-89
2021/12/13 09:41:48;;;;;;;17.13;11.33;;;9.90;60.30;;;;;;20819;6764;117379;-88
2021/12/13 09:44:28;;;;;;;17.80;11.30;;;9.60;61.10;;;;;;20702;6764;117170;-88
2021/12/13 09:47:02;;;;;;;18.63;11.50;;;9.40;61.70;;;;;;20771;6771;123582;-85
2021/12/13 09:49:40;;;;;;;25.43;10.93;;;9.30;62.20;;;;;;20798;6767;121501;-89
2021/12/13 09:52:29;;;;;;;16.40;11.13;;;9.10;62.50;;;;;;20822;6757;117317;-86
2021/12/13 09:55:18;;;;;;;26.87;15.90;;;9.00;62.90;;;;;;20466;6757;308628;-86
2021/12/13 09:58:03;;;;;;;25.50;12.10;;;9.30;62.50;;;;;;20838;6757;117313;-85
2021/12/13 10:00:40;;;;;;;32.97;12.83;;;9.20;62.50;;;;;;20780;6772;117572;-89
2021/12/13 10:03:14;;;;;;;460.10;24.03;;;9.10;62.70;;;;;;20831;6757;118077;-86
2021/12/13 10:05:51;;;;;;;427.70;23.43;;;8.80;63.20;;;;;;20833;6757;117518;-86
2021/12/13 10:08:26;;;;;;;305.90;20.07;;;8.80;63.20;;;;;;20778;6772;118098;-89
2021/12/13 10:11:05;;;;;;;188.13;17.70;;;8.70;63.60;;;;;;20832;6757;117657;-87
2021/12/13 10:13:41;;;;;;;124.22;20.23;;;9.00;64.20;;;;;;20497;6772;310720;-86
2021/12/13 10:16:17;;;;;;;51.57;14.30;;;8.90;64.10;;;;;;20826;6757;117474;-90
2021/12/13 10:18:52;;;;;;;97.23;14.77;;;9.00;63.60;;;;;;20814;6757;117587;-86
2021/12/13 10:21:31;;;;;;;60.07;12.97;;;9.00;63.80;;;;;;20786;6772;117536;-86
2021/12/13 10:24:07;;;;;;;219.80;17.63;;;8.80;64.40;;;;;;20731;6757;118191;-89
2021/12/13 10:26:43;;;;;;;237.10;18.87;;;8.80;64.40;;;;;;20663;6828;120142;-86
2021/12/13 10:29:19;;;;;;;39.03;12.47;;;8.80;64.70;;;;;;20779;6774;118151;-86
2021/12/13 10:32:01;;;;;;;240.13;17.53;;;8.80;65.20;;;;;;20815;6767;117962;-88
2021/12/13 10:34:36;;;;;;;38.00;16.27;;;8.80;65.60;;;;;;20411;6767;308968;-85
2021/12/13 10:37:15;;;;;;;34.30;16.45;;;9.10;65.90;;;;;;20601;6767;336207;-87
2021/12/13 10:39:51;;;;;;;35.17;14.73;;;9.60;64.80;;;;;;20627;6767;305621;-89
2021/12/13 10:42:26;;;;;;;50.10;15.90;;;10.10;62.60;;;;;;20665;6757;280659;-88
2021/12/13 10:45:08;;;;;;;129.20;18.52;;;10.40;61.10;;;;;;20422;6772;313906;-86
2021/12/13 10:47:44;;;;;;;78.67;15.97;;;10.60;60.10;;;;;;20617;6757;292988;-87
2021/12/13 10:50:22;;;;;;;80.07;14.60;;;10.80;59.20;;;;;;20833;6757;121112;-89
2021/12/13 10:52:55;;;;;;;16.17;10.83;;;10.70;59.40;;;;;;20741;6772;123886;-88
2021/12/13 10:55:30;;;;;;;13.53;10.27;;;10.30;60.10;;;;;;20833;6757;117777;-86
2021/12/13 10:58:07;;;;;;;14.90;9.60;;;10.10;61.00;;;;;;20836;6756;123332;-88
2021/12/13 11:00:41;;;;;;;11.63;10.30;;;9.90;62.70;;;;;;20763;6771;118256;-85
2021/12/13 11:03:17;;;;;;;14.63;10.13;;;9.80;63.30;;;;;;20797;6757;117746;-90
2021/12/13 11:05:52;;;;;;;12.13;9.33;;;9.70;63.60;;;;;;20834;6757;117604;-89
2021/12/13 11:08:28;;;;;;;11.60;9.97;;;9.70;64.00;;;;;;20759;6771;118587;-86
2021/12/13 11:11:11;;;;;;;13.68;11.88;;;9.60;64.40;;;;;;20686;6739;306679;-87
2021/12/13 11:13:46;;;;;;;11.23;10.03;;;9.90;64.30;;;;;;20827;6739;117373;-86
2021/12/13 11:16:21;;;;;;;11.20;8.80;;;10.10;62.90;;;;;;20911;6739;117408;-85
2021/12/13 11:18:57;;;;;;;9.13;8.30;;;10.00;63.00;;;;;;20929;6739;123194;-87
2021/12/13 11:21:32;;;;;;;7.03;6.53;;;10.00;63.40;;;;;;20876;6739;121071;-86
2021/12/13 11:24:08;;;;;;;8.57;7.85;;;10.00;63.70;;;;;;20575;6739;279939;-89
2021/12/13 11:26:44;;;;;;;6.50;6.03;;;10.20;62.70;;;;;;20880;6739;117015;-86
2021/12/13 11:29:20;;;;;;;7.10;6.60;;;10.60;61.60;;;;;;20676;6739;318600;-86
2021/12/13 11:32:19;;;;;;;6.93;6.43;;;10.60;60.90;;;;;;20888;6739;117510;-87
2021/12/13 11:35:04;;;;;;;6.80;6.20;;;10.70;60.80;;;;;;20686;6796;118022;-86
2021/12/13 11:38:13;;;;;;;6.50;6.00;;;10.50;61.80;;;;;;20652;6796;306676;-88
2021/12/13 11:41:19;;;;;;;6.03;5.63;;;10.70;60.60;;;;;;20671;6739;277344;-89
2021/12/13 11:44:05;;;;;;;6.53;6.13;;;11.20;59.30;;;;;;20607;6739;281355;-88
2021/12/13 11:47:03;;;;;;;8.33;7.70;;;11.50;58.10;;;;;;20659;6739;306273;-87
2021/12/13 11:49:59;;;;;;;7.60;6.90;;;11.70;57.80;;;;;;20671;6796;340086;-87
2021/12/13 11:53:14;;;;;;;8.47;7.77;;;11.90;57.30;;;;;;20656;6739;311211;-87
2021/12/13 11:56:19;;;;;;;7.68;7.18;;;12.10;56.80;;;;;;20664;6796;306916;-89
2021/12/13 11:59:10;;;;;;;7.30;6.80;;;12.00;56.90;;;;;;20880;6739;122221;-87
2021/12/13 12:02:02;;;;;;;7.13;6.50;;;11.60;57.70;;;;;;20893;6739;117166;-86
2021/12/13 12:05:10;;;;;;;6.37;5.87;;;11.60;57.70;;;;;;20737;6739;122009;-85
2021/12/13 12:08:26;;;;;;;5.73;5.40;;;11.30;58.50;;;;;;20903;6739;118327;-85
2021/12/13 12:11:18;;;;;;;6.30;5.80;;;10.90;59.90;;;;;;20892;6739;117054;-85
2021/12/13 12:14:05;;;;;;;6.07;5.67;;;10.90;59.90;;;;;;20592;6739;331491;-84
2021/12/13 12:16:39;;;;;;;6.90;6.33;;;11.10;59.10;;;;;;20663;6739;277582;-84
2021/12/13 12:19:14;;;;;;;6.90;6.50;;;11.50;58.10;;;;;;20655;6739;309032;-84
2021/12/13 12:21:50;;;;;;;5.87;5.53;;;11.80;57.80;;;;;;20638;6739;335155;-86
2021/12/13 12:24:25;;;;;;;5.30;4.90;;;12.00;57.50;;;;;;20749;6739;118774;-87
2021/12/13 12:27:04;;;;;;;5.10;4.80;;;12.00;57.50;;;;;;20866;6739;117341;-87
2021/12/13 12:29:39;;;;;;;5.30;4.90;;;11.70;57.90;;;;;;20896;6739;117264;-84
2021/12/13 12:32:25;;;;;;;6.47;5.87;;;11.50;58.50;;;;;;20908;6739;118784;-87
2021/12/13 12:35:01;;;;;;;6.70;6.20;;;11.30;59.10;;;;;;20755;6739;117776;-86
2021/12/13 12:37:38;;;;;;;6.23;5.73;;;11.10;59.40;;;;;;20887;6739;117778;-84
2021/12/13 12:40:18;;;;;;;6.93;6.40;;;11.00;59.90;;;;;;20886;6739;117472;-85
2021/12/13 12:43:00;;;;;;;7.30;6.70;;;10.90;60.20;;;;;;20848;6739;118646;-87
2021/12/13 12:45:39;;;;;;;6.80;6.30;;;10.90;60.40;;;;;;20876;6739;121298;-86
2021/12/13 12:48:21;;;;;;;5.97;5.57;;;10.90;60.60;;;;;;20938;6739;117401;-86
2021/12/13 12:51:00;;;;;;;6.40;6.00;;;10.70;60.80;;;;;;20879;6739;122906;-84
2021/12/13 12:53:39;;;;;;;6.67;6.17;;;10.70;60.80;;;;;;20824;6739;117626;-84
2021/12/13 12:56:25;;;;;;;6.27;5.67;;;10.70;60.90;;;;;;20891;6739;117175;-92
2021/12/13 12:59:00;;;;;;;20.87;13.57;;;10.70;61.10;;;;;;20668;6739;314526;-85
2021/12/13 13:01:36;;;;;;;21.33;11.90;;;11.00;60.20;;;;;;20797;6796;117434;-86
2021/12/13 13:04:28;;;;;;;5.63;5.13;;;11.10;59.90;;;;;;20792;6739;117964;-85
2021/12/13 13:07:17;;;;;;;5.22;4.93;;;11.00;60.00;;;;;;20685;6739;277778;-83
2021/12/13 13:09:55;;;;;;;13.27;5.80;;;11.30;58.50;;;;;;20679;6739;306709;-85
2021/12/13 13:12:31;;;;;;;4.47;4.17;;;11.70;57.10;;;;;;20660;6739;311288;-85
2021/12/13 13:15:07;;;;;;;3.80;3.60;;;11.90;56.30;;;;;;20675;6810;116965;-84
2021/12/13 13:17:42;;;;;;;3.30;3.10;;;11.90;56.50;;;;;;20899;6739;120565;-84
2021/12/13 13:20:20;;;;;;;3.40;3.20;;;11.60;57.20;;;;;;20904;6739;117130;-85
2021/12/13 13:22:57;;;;;;;3.73;3.53;;;11.20;58.50;;;;;;20873;6739;117940;-85
2021/12/13 13:25:32;;;;;;;4.80;4.50;;;11.20;58.40;;;;;;20718;6739;306025;-85
2021/12/13 13:28:14;;;;;;;3.80;3.60;;;11.40;57.70;;;;;;20909;6736;117494;-87
2021/12/13 13:30:50;;;;;;;5.10;4.70;;;11.40;57.60;;;;;;20887;6736;117320;-85
2021/12/13 13:33:33;;;;;;;4.60;4.30;;;11.30;58.00;;;;;;20848;6736;121694;-85
2021/12/13 13:36:11;;;;;;;5.17;4.80;;;11.10;58.40;;;;;;20840;6810;117179;-87
2021/12/13 13:38:47;;;;;;;8.30;7.70;;;11.00;58.90;;;;;;20743;6779;119961;-88
2021/12/13 13:41:22;;;;;;;5.20;4.90;;;10.80;59.20;;;;;;20805;6778;120898;-85
2021/12/13 13:43:58;;;;;;;5.60;5.30;;;10.70;59.40;;;;;;20771;6754;117195;-85
2021/12/13 13:46:33;;;;;;;18.42;16.98;;;10.70;59.70;;;;;;20562;6766;282383;-85
2021/12/13 13:49:09;;;;;;;6.85;6.45;;;10.90;59.10;;;;;;20583;6769;308118;-87
2021/12/13 13:51:45;;;;;;;26.83;24.47;;;11.30;57.70;;;;;;20674;6760;280375;-88
2021/12/13 13:54:20;;;;;;;18.30;16.77;;;11.60;57.00;;;;;;20488;6760;309351;-86
2021/12/13 13:56:56;;;;;;;17.23;14.93;;;11.90;56.30;;;;;;20810;6759;117366;-88
2021/12/13 13:59:35;;;;;;;19.73;17.73;;;11.70;56.40;;;;;;20643;6760;306691;-87
2021/12/13 14:02:07;;;;;;;8.97;8.27;;;11.70;55.90;;;;;;20615;6760;306789;-86
2021/12/13 14:04:43;;;;;;;7.23;6.63;;;11.90;55.70;;;;;;20456;6760;308209;-82
2021/12/13 14:07:22;;;;;;;6.22;5.82;;;12.00;55.30;;;;;;20625;6764;322325;-82